createdAt,value
2017-09-28T00:01:31.055Z,13.00
2017-09-28T00:04:00.197Z,13.40
2017-09-28T00:06:28.606Z,13.40
2017-09-28T00:08:57.749Z,13.50
2017-09-28T00:11:26.153Z,13.50
2017-09-28T00:13:54.533Z,13.40
2017-09-28T00:16:22.910Z,13.40
2017-09-28T00:18:51.313Z,13.40
2017-09-28T00:21:20.473Z,13.30
2017-09-28T00:23:48.880Z,13.30
2017-09-28T00:26:17.250Z,13.20
2017-09-28T00:28:45.645Z,13.00
2017-09-28T00:31:13.343Z,12.80
2017-09-28T00:33:41.067Z,12.90
2017-09-28T00:36:09.269Z,13.00
2017-09-28T00:38:37.726Z,13.10
2017-09-28T00:41:06.697Z,13.10
2017-09-28T00:43:34.389Z,13.10
2017-09-28T00:46:03.207Z,12.90
2017-09-28T00:48:31.600Z,12.90
2017-09-28T00:50:59.656Z,12.90
2017-09-28T00:53:28.032Z,12.80
2017-09-28T00:55:56.440Z,12.70
2017-09-28T00:58:24.837Z,12.70
2017-09-28T01:00:52.884Z,12.70
2017-09-28T01:03:21.299Z,12.70
2017-09-28T01:05:50.456Z,12.60
2017-09-28T01:08:18.510Z,12.60
2017-09-28T01:10:46.541Z,12.70
2017-09-28T01:13:15.206Z,12.90
2017-09-28T01:15:43.581Z,13.10
2017-09-28T01:18:12.002Z,13.40
2017-09-28T01:20:41.161Z,13.80
2017-09-28T01:23:09.202Z,13.80
2017-09-28T01:25:37.255Z,13.90
2017-09-28T01:28:05.646Z,14.00
2017-09-28T01:30:33.363Z,14.10
2017-09-28T01:33:02.525Z,14.50
2017-09-28T01:35:30.245Z,14.40
2017-09-28T01:37:57.972Z,14.60
2017-09-28T01:40:26.674Z,14.90
2017-09-28T01:42:55.836Z,14.90
2017-09-28T01:45:23.535Z,14.90
2017-09-28T01:47:52.001Z,15.10
2017-09-28T01:50:19.692Z,15.00
2017-09-28T01:52:47.397Z,15.10
2017-09-28T01:55:15.797Z,15.20
2017-09-28T01:57:44.197Z,15.20
2017-09-28T02:00:13.343Z,15.30
2017-09-28T02:02:41.562Z,15.30
2017-09-28T02:05:10.725Z,15.40
2017-09-28T02:07:39.113Z,15.30
2017-09-28T02:10:07.573Z,15.50
2017-09-28T02:12:35.728Z,15.40
2017-09-28T02:15:03.777Z,15.50
2017-09-28T02:17:32.154Z,15.60
2017-09-28T02:20:01.326Z,15.60
2017-09-28T02:22:29.715Z,15.60
2017-09-28T02:24:58.701Z,15.70
2017-09-28T02:27:27.167Z,15.70
2017-09-28T02:29:55.606Z,15.70
2017-09-28T02:32:23.645Z,15.80
2017-09-28T02:34:52.446Z,15.80
2017-09-28T02:37:20.489Z,15.80
2017-09-28T02:39:49.661Z,15.80
2017-09-28T02:42:18.076Z,15.80
2017-09-28T02:44:47.226Z,15.80
2017-09-28T02:47:15.844Z,15.80
2017-09-28T02:49:44.996Z,15.90
2017-09-28T02:52:13.379Z,15.90
2017-09-28T02:54:41.778Z,15.90
2017-09-28T02:57:10.153Z,15.90
2017-09-28T02:59:38.550Z,16.00
2017-09-28T03:02:06.970Z,16.00
2017-09-28T03:04:35.373Z,16.00
2017-09-28T03:07:03.838Z,16.10
2017-09-28T03:09:32.051Z,16.10
2017-09-28T03:12:00.448Z,16.10
2017-09-28T03:14:29.617Z,16.10
2017-09-28T03:16:58.018Z,16.10
2017-09-28T03:19:27.183Z,16.20
2017-09-28T03:21:55.601Z,16.10
2017-09-28T03:24:24.750Z,16.20
2017-09-28T03:26:53.147Z,16.10
2017-09-28T03:29:21.525Z,16.20
2017-09-28T03:31:49.993Z,16.20
2017-09-28T03:34:18.369Z,16.20
2017-09-28T03:36:46.782Z,16.20
2017-09-28T03:39:15.174Z,16.20
2017-09-28T03:41:44.342Z,16.10
2017-09-28T03:44:12.746Z,16.10
2017-09-28T03:46:41.974Z,16.00
2017-09-28T03:49:10.357Z,16.00
2017-09-28T03:51:38.758Z,16.00
2017-09-28T03:54:07.173Z,16.00
2017-09-28T03:56:36.334Z,15.90
2017-09-28T03:59:04.739Z,15.90
2017-09-28T04:01:33.934Z,15.90
2017-09-28T04:04:02.338Z,15.90
2017-09-28T04:06:31.506Z,15.90
2017-09-28T04:08:59.897Z,15.90
2017-09-28T04:11:29.058Z,15.90
2017-09-28T04:13:57.441Z,15.90
2017-09-28T04:16:25.864Z,15.90
2017-09-28T04:18:55.016Z,15.90
2017-09-28T04:21:23.217Z,15.80
2017-09-28T04:23:51.609Z,15.90
2017-09-28T04:26:20.417Z,15.80
2017-09-28T04:28:48.828Z,15.80
2017-09-28T04:31:17.220Z,15.90
2017-09-28T04:33:45.609Z,15.90
2017-09-28T04:36:14.002Z,15.80
2017-09-28T04:38:43.185Z,15.90
2017-09-28T04:41:12.740Z,15.90
2017-09-28T04:43:41.114Z,15.90
2017-09-28T04:46:09.521Z,15.90
2017-09-28T04:48:37.922Z,15.90
2017-09-28T04:51:07.083Z,15.90
2017-09-28T04:53:35.519Z,15.80
2017-09-28T04:56:04.702Z,15.70
2017-09-28T04:58:33.086Z,15.70
2017-09-28T05:01:02.269Z,15.60
2017-09-28T05:03:30.670Z,15.50
2017-09-28T05:05:59.906Z,15.70
2017-09-28T05:08:28.362Z,15.70
2017-09-28T05:10:56.767Z,15.80
2017-09-28T05:13:25.177Z,15.90
2017-09-28T05:15:53.572Z,16.00
2017-09-28T05:18:22.751Z,16.10
2017-09-28T05:20:51.142Z,16.10
2017-09-28T05:23:20.338Z,16.10
2017-09-28T05:25:48.722Z,16.10
2017-09-28T05:28:17.882Z,16.20
2017-09-28T05:30:46.283Z,16.20
2017-09-28T05:33:14.686Z,16.20
2017-09-28T05:35:43.677Z,16.10
2017-09-28T05:38:12.926Z,16.10
2017-09-28T05:40:41.370Z,16.10
2017-09-28T05:43:09.589Z,16.00
2017-09-28T05:45:37.999Z,15.90
2017-09-28T05:48:06.194Z,15.80
2017-09-28T05:50:34.391Z,15.80
2017-09-28T05:53:02.811Z,15.80
2017-09-28T05:55:31.226Z,15.90
2017-09-28T05:57:59.610Z,15.90
2017-09-28T06:00:27.314Z,15.90
2017-09-28T06:02:55.700Z,15.90
2017-09-28T06:05:24.082Z,15.90
2017-09-28T06:07:52.536Z,15.80
2017-09-28T06:10:21.145Z,15.80
2017-09-28T06:12:49.525Z,15.80
2017-09-28T06:15:17.922Z,15.80
2017-09-28T06:17:47.079Z,15.80
2017-09-28T06:20:15.478Z,15.80
2017-09-28T06:22:43.957Z,15.80
2017-09-28T06:25:12.375Z,15.90
2017-09-28T06:27:40.788Z,15.90
2017-09-28T06:30:09.198Z,15.90
2017-09-28T06:32:37.572Z,15.90
2017-09-28T06:35:05.850Z,15.90
2017-09-28T06:37:34.249Z,15.90
2017-09-28T06:40:03.409Z,16.00
2017-09-28T06:42:31.803Z,16.00
2017-09-28T06:45:00.197Z,16.10
2017-09-28T06:47:28.595Z,16.10
2017-09-28T06:49:57.741Z,16.10
2017-09-28T06:52:26.134Z,16.10
2017-09-28T06:54:54.541Z,16.10
2017-09-28T06:57:23.693Z,16.20
2017-09-28T06:59:52.091Z,16.20
2017-09-28T07:02:20.464Z,16.30
2017-09-28T07:04:48.862Z,16.40
2017-09-28T07:07:18.025Z,16.50
2017-09-28T07:09:46.405Z,16.50
2017-09-28T07:12:14.797Z,16.60
2017-09-28T07:14:43.175Z,16.60
2017-09-28T07:17:11.597Z,16.60
2017-09-28T07:19:39.978Z,16.70
2017-09-28T07:22:08.381Z,16.70
2017-09-28T07:24:36.413Z,16.70
2017-09-28T07:27:05.569Z,16.70
2017-09-28T07:29:34.026Z,16.80
2017-09-28T07:32:02.070Z,16.70
2017-09-28T07:34:30.517Z,16.80
2017-09-28T07:36:58.912Z,16.80
2017-09-28T07:39:28.073Z,16.80
2017-09-28T07:41:57.224Z,16.80
2017-09-28T07:44:25.609Z,16.80
2017-09-28T07:46:54.006Z,16.80
2017-09-28T07:49:22.406Z,16.80
2017-09-28T07:51:51.624Z,16.90
2017-09-28T07:54:20.003Z,16.90
2017-09-28T07:56:49.178Z,17.00
2017-09-28T07:59:18.321Z,17.00
2017-09-28T08:01:46.694Z,17.00
2017-09-28T08:04:15.090Z,17.10
2017-09-28T08:06:43.483Z,17.10
2017-09-28T08:09:11.872Z,17.20
2017-09-28T08:11:40.274Z,17.30
2017-09-28T08:14:08.665Z,17.30
2017-09-28T08:16:37.816Z,17.40
2017-09-28T08:19:06.200Z,17.40
2017-09-28T08:21:34.593Z,17.50
2017-09-28T08:24:02.983Z,17.50
2017-09-28T08:26:31.386Z,17.50
2017-09-28T08:29:00.550Z,17.60
2017-09-28T08:31:28.951Z,17.60
2017-09-28T08:33:57.335Z,17.70
2017-09-28T08:36:26.496Z,17.80
2017-09-28T08:38:54.883Z,17.80
2017-09-28T08:41:23.264Z,17.90
2017-09-28T08:43:51.654Z,17.90
2017-09-28T08:46:20.048Z,18.00
2017-09-28T08:48:49.207Z,17.90
2017-09-28T08:51:17.595Z,17.90
2017-09-28T08:53:46.003Z,17.80
2017-09-28T08:56:15.152Z,17.90
2017-09-28T08:58:43.534Z,17.90
2017-09-28T09:01:11.938Z,17.90
2017-09-28T09:03:40.337Z,17.90
2017-09-28T09:06:08.754Z,17.90
2017-09-28T09:08:37.150Z,17.90
2017-09-28T09:11:05.552Z,18.00
2017-09-28T09:13:33.930Z,18.00
2017-09-28T09:16:02.318Z,18.00
2017-09-28T09:18:31.510Z,18.10
2017-09-28T09:20:59.893Z,18.10
2017-09-28T09:23:29.053Z,18.20
2017-09-28T09:25:57.510Z,18.20
2017-09-28T09:28:25.893Z,18.20
2017-09-28T09:30:54.290Z,18.30
2017-09-28T09:33:22.672Z,18.40
2017-09-28T09:35:51.063Z,18.40
2017-09-28T09:38:19.448Z,18.50
2017-09-28T09:40:47.837Z,18.50
2017-09-28T09:43:16.033Z,18.50
2017-09-28T09:45:44.441Z,18.50
2017-09-28T09:48:12.824Z,18.50
2017-09-28T09:50:41.024Z,18.60
2017-09-28T09:53:09.413Z,18.60
2017-09-28T09:55:37.786Z,18.50
2017-09-28T09:58:06.179Z,18.50
2017-09-28T10:00:35.754Z,18.60
2017-09-28T10:03:04.140Z,18.60
2017-09-28T10:05:32.519Z,18.70
2017-09-28T10:08:04.018Z,18.80
2017-09-28T10:10:36.081Z,18.90
2017-09-28T10:13:09.606Z,18.90
2017-09-28T10:15:41.113Z,19.00
2017-09-28T10:18:10.109Z,19.10
2017-09-28T10:20:39.069Z,19.20
2017-09-28T10:23:07.462Z,19.10
2017-09-28T10:25:35.889Z,19.20
2017-09-28T10:28:04.269Z,19.20
2017-09-28T10:30:32.682Z,19.10
2017-09-28T10:33:01.069Z,19.00
2017-09-28T10:35:29.484Z,19.00
2017-09-28T10:37:57.872Z,19.00
2017-09-28T10:40:26.270Z,19.10
2017-09-28T10:42:54.677Z,19.10
2017-09-28T10:45:23.059Z,19.20
2017-09-28T10:47:51.455Z,19.20
2017-09-28T10:50:20.596Z,19.40
2017-09-28T10:52:48.999Z,19.40
2017-09-28T10:55:17.380Z,19.50
2017-09-28T10:57:45.770Z,19.70
2017-09-28T11:00:14.159Z,19.80
2017-09-28T11:02:43.301Z,20.20
2017-09-28T11:05:11.695Z,20.20
2017-09-28T11:07:40.070Z,20.30
2017-09-28T11:10:08.487Z,20.30
2017-09-28T11:12:36.869Z,20.50
2017-09-28T11:15:06.031Z,20.80
2017-09-28T11:17:34.439Z,20.80
2017-09-28T11:20:02.829Z,21.10
2017-09-28T11:22:32.011Z,21.60
2017-09-28T11:25:00.398Z,21.60
2017-09-28T11:27:28.776Z,21.80
2017-09-28T11:29:57.919Z,21.80
2017-09-28T11:32:26.294Z,21.70
2017-09-28T11:34:54.687Z,21.40
2017-09-28T11:37:23.142Z,21.30
2017-09-28T11:39:51.546Z,21.30
2017-09-28T11:42:19.929Z,21.40
2017-09-28T11:44:48.318Z,21.40
2017-09-28T11:47:16.693Z,21.60
2017-09-28T11:49:45.108Z,22.10
2017-09-28T11:52:14.279Z,22.90
2017-09-28T11:54:42.677Z,22.90
2017-09-28T11:57:11.836Z,23.30
2017-09-28T11:59:40.995Z,23.40
2017-09-28T12:02:09.960Z,23.30
2017-09-28T12:04:39.132Z,23.40
2017-09-28T12:07:07.515Z,23.30
2017-09-28T12:09:35.910Z,23.40
2017-09-28T12:12:04.339Z,23.70
2017-09-28T12:14:32.777Z,23.60
2017-09-28T12:17:02.065Z,23.30
2017-09-28T12:19:31.321Z,23.30
2017-09-28T12:21:59.706Z,23.30
2017-09-28T12:24:29.903Z,23.70
2017-09-28T12:26:58.289Z,23.80
2017-09-28T12:29:27.132Z,24.00
2017-09-28T12:31:55.521Z,24.20
2017-09-28T12:34:24.664Z,24.10
2017-09-28T12:36:53.089Z,24.10
2017-09-28T12:39:22.295Z,24.00
2017-09-28T12:41:51.449Z,23.80
2017-09-28T12:44:19.841Z,23.80
2017-09-28T12:46:48.220Z,23.50
2017-09-28T12:49:16.628Z,23.30
2017-09-28T12:51:45.771Z,22.70
2017-09-28T12:54:14.200Z,22.70
2017-09-28T12:56:43.360Z,22.90
2017-09-28T12:59:11.737Z,22.90
2017-09-28T13:01:40.150Z,23.10
2017-09-28T13:04:09.295Z,22.70
2017-09-28T13:06:37.731Z,22.70
2017-09-28T13:09:06.915Z,23.00
2017-09-28T13:11:36.078Z,22.90
2017-09-28T13:14:04.461Z,22.80
2017-09-28T13:16:32.868Z,22.70
2017-09-28T13:19:02.033Z,22.40
2017-09-28T13:21:30.423Z,22.40
2017-09-28T13:23:58.820Z,22.30
2017-09-28T13:26:27.988Z,22.20
2017-09-28T13:28:56.196Z,22.20
2017-09-28T13:31:25.351Z,22.20
2017-09-28T13:33:53.745Z,22.20
2017-09-28T13:36:22.138Z,22.10
2017-09-28T13:38:50.514Z,22.20
2017-09-28T13:41:18.942Z,22.10
2017-09-28T13:43:47.355Z,22.10
2017-09-28T13:46:15.756Z,22.00
2017-09-28T13:48:44.153Z,21.90
2017-09-28T13:51:13.306Z,21.70
2017-09-28T13:53:41.695Z,21.60
2017-09-28T13:56:10.119Z,21.50
2017-09-28T13:58:38.518Z,21.50
2017-09-28T14:01:06.903Z,21.50
2017-09-28T14:03:35.305Z,21.50
2017-09-28T14:06:04.480Z,21.40
2017-09-28T14:08:33.921Z,21.40
2017-09-28T14:11:02.314Z,21.40
2017-09-28T14:13:31.475Z,21.50
2017-09-28T14:16:00.641Z,21.50
2017-09-28T14:18:29.078Z,21.50
2017-09-28T14:20:58.277Z,21.80
2017-09-28T14:23:27.465Z,21.80
2017-09-28T14:25:55.987Z,21.80
2017-09-28T14:28:24.381Z,21.80
2017-09-28T14:30:52.591Z,21.80
2017-09-28T14:33:21.070Z,21.80
2017-09-28T14:35:49.459Z,21.90
2017-09-28T14:38:17.905Z,21.90
2017-09-28T14:40:46.329Z,21.90
2017-09-28T14:43:15.498Z,21.80
2017-09-28T14:45:43.901Z,21.80
2017-09-28T14:48:12.311Z,21.70
2017-09-28T14:50:41.163Z,21.70
2017-09-28T14:53:10.339Z,21.60
2017-09-28T14:55:38.749Z,21.50
2017-09-28T14:58:07.245Z,21.50
2017-09-28T15:00:35.821Z,21.40
2017-09-28T15:03:04.242Z,21.40
2017-09-28T15:05:33.397Z,21.20
2017-09-28T15:08:02.554Z,21.20
2017-09-28T15:10:30.970Z,21.10
2017-09-28T15:13:00.118Z,21.10
2017-09-28T15:15:28.323Z,21.10
2017-09-28T15:17:57.295Z,21.10
2017-09-28T15:20:25.698Z,21.00
2017-09-28T15:22:54.877Z,21.00
2017-09-28T15:25:23.283Z,21.00
2017-09-28T15:27:52.451Z,20.90
2017-09-28T15:30:20.887Z,20.90
2017-09-28T15:32:49.299Z,20.80
2017-09-28T15:35:17.710Z,20.80
2017-09-28T15:37:46.895Z,20.80
2017-09-28T15:40:15.926Z,20.90
2017-09-28T15:42:44.325Z,20.90
2017-09-28T15:45:12.530Z,20.90
2017-09-28T15:47:40.727Z,20.90
2017-09-28T15:50:09.913Z,20.90
2017-09-28T15:52:38.295Z,20.80
2017-09-28T15:55:07.463Z,20.80
2017-09-28T15:57:35.867Z,20.80
2017-09-28T16:00:05.068Z,20.70
2017-09-28T16:02:34.266Z,20.60
2017-09-28T16:05:02.650Z,20.60
2017-09-28T16:07:32.677Z,20.40
2017-09-28T16:10:01.067Z,20.30
2017-09-28T16:12:29.479Z,20.30
2017-09-28T16:14:57.845Z,20.20
2017-09-28T16:17:26.270Z,20.10
2017-09-28T16:19:55.419Z,20.00
2017-09-28T16:22:23.486Z,20.00
2017-09-28T16:24:51.883Z,20.00
2017-09-28T16:27:20.259Z,20.00
2017-09-28T16:29:48.654Z,20.00
2017-09-28T16:32:17.021Z,19.90
2017-09-28T16:34:46.229Z,19.80
2017-09-28T16:37:25.979Z,19.80
2017-09-28T16:39:54.591Z,19.70
2017-09-28T16:42:23.742Z,19.80
2017-09-28T16:44:52.131Z,19.80
2017-09-28T16:47:20.532Z,19.80
2017-09-28T16:49:49.698Z,19.90
2017-09-28T16:52:17.901Z,19.80
2017-09-28T16:54:46.861Z,19.80
2017-09-28T16:57:15.262Z,19.80
2017-09-28T16:59:43.661Z,19.80
2017-09-28T17:02:12.859Z,19.70
2017-09-28T17:04:41.310Z,19.70
2017-09-28T17:07:09.745Z,19.70
2017-09-28T17:09:38.150Z,19.60
2017-09-28T17:12:06.531Z,19.50
2017-09-28T17:14:34.966Z,19.40
2017-09-28T17:17:03.345Z,19.40
2017-09-28T17:19:31.837Z,19.30
2017-09-28T17:22:00.229Z,19.30
2017-09-28T17:24:28.642Z,19.20
2017-09-28T17:26:58.047Z,19.20
2017-09-28T17:29:26.442Z,19.10
2017-09-28T17:31:55.610Z,19.10
2017-09-28T17:34:23.843Z,19.10
2017-09-28T17:36:52.045Z,19.10
2017-09-28T17:39:20.449Z,19.00
2017-09-28T17:41:49.629Z,19.00
2017-09-28T17:44:17.844Z,19.00
2017-09-28T17:46:46.978Z,19.00
2017-09-28T17:49:15.380Z,19.00
2017-09-28T17:51:43.759Z,19.10
2017-09-28T17:54:12.158Z,19.10
2017-09-28T17:56:41.314Z,19.10
2017-09-28T17:59:09.693Z,19.10
2017-09-28T18:01:38.094Z,19.20
2017-09-28T18:04:06.484Z,19.20
2017-09-28T18:06:35.675Z,19.10
2017-09-28T18:09:03.230Z,19.00
2017-09-28T18:11:31.434Z,19.10
2017-09-28T18:14:00.419Z,19.00
2017-09-28T18:16:29.583Z,18.90
2017-09-28T18:18:57.769Z,18.90
2017-09-28T18:21:25.970Z,18.90
2017-09-28T18:23:54.365Z,19.00
2017-09-28T18:26:22.555Z,19.00
2017-09-28T18:28:50.967Z,18.90
2017-09-28T18:31:19.161Z,18.90
2017-09-28T18:33:48.424Z,18.80
2017-09-28T18:36:16.827Z,18.80
2017-09-28T18:38:45.233Z,18.80
2017-09-28T18:41:14.394Z,18.80
2017-09-28T18:43:42.773Z,18.80
2017-09-28T18:46:10.976Z,18.80
2017-09-28T18:48:40.130Z,18.80
2017-09-28T18:51:08.747Z,18.80
2017-09-28T18:53:37.028Z,18.70
2017-09-28T18:56:05.508Z,18.70
2017-09-28T18:58:34.490Z,18.70
2017-09-28T19:01:02.898Z,18.70
2017-09-28T19:03:31.289Z,18.60
2017-09-28T19:05:59.526Z,18.60
2017-09-28T19:08:28.519Z,18.50
2017-09-28T19:10:57.681Z,18.50
2017-09-28T19:13:26.094Z,18.50
2017-09-28T19:15:55.054Z,18.40
2017-09-28T19:18:23.505Z,18.40
2017-09-28T19:20:52.087Z,18.20
2017-09-28T19:23:20.555Z,18.00
2017-09-28T19:25:48.985Z,17.90
2017-09-28T19:28:18.202Z,18.10
2017-09-28T19:30:46.495Z,18.10
2017-09-28T19:33:15.643Z,18.10
2017-09-28T19:35:44.141Z,18.10
2017-09-28T19:38:12.676Z,18.20
2017-09-28T19:40:41.085Z,18.10
2017-09-28T19:43:10.261Z,18.10
2017-09-28T19:45:38.665Z,18.10
2017-09-28T19:48:07.045Z,18.10
2017-09-28T19:50:35.985Z,18.10
2017-09-28T19:53:04.378Z,18.10
2017-09-28T19:55:32.754Z,18.10
2017-09-28T19:58:01.167Z,18.00
2017-09-28T20:00:29.549Z,18.00
2017-09-28T20:02:57.933Z,17.90
2017-09-28T20:05:26.328Z,17.90
2017-09-28T20:07:55.506Z,17.90
2017-09-28T20:10:23.890Z,17.90
2017-09-28T20:12:52.329Z,17.80
2017-09-28T20:15:20.981Z,17.80
2017-09-28T20:17:49.934Z,17.80
2017-09-28T20:20:18.133Z,17.70
2017-09-28T20:22:46.318Z,17.80
2017-09-28T20:25:15.474Z,17.80
2017-09-28T20:27:44.625Z,17.80
2017-09-28T20:30:12.711Z,17.80
2017-09-28T20:32:41.094Z,17.80
2017-09-28T20:35:09.473Z,17.80
2017-09-28T20:37:37.685Z,17.80
2017-09-28T20:40:05.873Z,17.80
2017-09-28T20:42:35.047Z,17.80
2017-09-28T20:45:03.432Z,17.80
2017-09-28T20:47:31.873Z,17.90
2017-09-28T20:49:59.898Z,17.90
2017-09-28T20:52:28.368Z,17.80
2017-09-28T20:54:56.747Z,17.70
2017-09-28T20:57:25.151Z,17.70
2017-09-28T20:59:54.262Z,17.70
2017-09-28T21:02:22.702Z,17.60
2017-09-28T21:04:52.209Z,17.50
2017-09-28T21:07:20.628Z,17.50
2017-09-28T21:09:49.046Z,17.30
2017-09-28T21:12:17.481Z,17.10
2017-09-28T21:14:45.901Z,17.00
2017-09-28T21:17:14.318Z,16.80
2017-09-28T21:19:43.502Z,16.70
2017-09-28T21:22:12.718Z,16.70
2017-09-28T21:24:41.136Z,16.70
2017-09-28T21:27:09.534Z,16.60
2017-09-28T21:29:38.047Z,16.50
2017-09-28T21:32:07.205Z,16.50
2017-09-28T21:34:35.567Z,16.50
2017-09-28T21:37:03.973Z,16.50
2017-09-28T21:39:32.388Z,16.50
2017-09-28T21:42:00.770Z,16.50
2017-09-28T21:44:29.929Z,16.60
2017-09-28T21:46:58.340Z,16.50
2017-09-28T21:49:27.500Z,16.60
2017-09-28T21:51:55.915Z,16.60
2017-09-28T21:54:24.135Z,16.70
2017-09-28T21:56:52.530Z,16.70
2017-09-28T21:59:20.750Z,16.70
2017-09-28T22:01:49.909Z,16.70
2017-09-28T22:04:18.285Z,16.70
2017-09-28T22:06:46.703Z,16.90
2017-09-28T22:09:17.476Z,16.80
2017-09-28T22:11:45.890Z,16.80
2017-09-28T22:14:14.085Z,16.90
2017-09-28T22:16:43.242Z,17.00
2017-09-28T22:19:11.673Z,16.90
2017-09-28T22:21:40.057Z,17.00
2017-09-28T22:24:08.457Z,17.00
2017-09-28T22:26:36.645Z,17.00
2017-09-28T22:29:05.054Z,17.00
2017-09-28T22:31:34.213Z,17.00
2017-09-28T22:34:02.595Z,17.00
2017-09-28T22:36:30.986Z,17.00
2017-09-28T22:38:59.366Z,17.00
2017-09-28T22:41:27.766Z,17.00
2017-09-28T22:43:56.936Z,16.90
2017-09-28T22:46:25.338Z,16.90
2017-09-28T22:48:53.721Z,17.00
2017-09-28T22:51:22.888Z,17.00
2017-09-28T22:53:52.082Z,17.00
2017-09-28T22:56:20.485Z,17.00
2017-09-28T22:58:48.874Z,17.00
2017-09-28T23:01:17.826Z,17.00
2017-09-28T23:03:46.221Z,17.00
2017-09-28T23:06:14.425Z,16.90
2017-09-28T23:08:43.574Z,17.00
2017-09-28T23:11:12.732Z,16.90
2017-09-28T23:13:41.111Z,16.90
2017-09-28T23:16:09.488Z,16.90
2017-09-28T23:18:37.861Z,16.90
2017-09-28T23:21:06.259Z,16.90
2017-09-28T23:23:34.630Z,16.90
2017-09-28T23:26:03.014Z,16.90
2017-09-28T23:28:31.401Z,16.90
2017-09-28T23:30:59.789Z,16.90
2017-09-28T23:33:28.201Z,16.90
2017-09-28T23:35:56.587Z,16.90
2017-09-28T23:38:25.749Z,16.80
2017-09-28T23:40:54.115Z,16.80
2017-09-28T23:43:22.502Z,16.80
2017-09-28T23:45:50.921Z,16.80
2017-09-28T23:48:20.080Z,16.80
2017-09-28T23:50:48.489Z,16.80
2017-09-28T23:53:17.651Z,16.80
2017-09-28T23:55:46.061Z,16.80
2017-09-28T23:58:15.225Z,16.80
